Travelers Rest, SC (29690)

5:54 PM EDT on September 02, 2015 (GMT -0400)
APRSWXNET | | Change Station
CLOSE
Current Station
Personal Weather Station
Location: Travelers Rest, SC
Elevation: 1049 ft
Nearby Weather Stations

Elev 1049 ft 35.00 °N, 82.43 °W | Updated 38 minutes ago

Partly Cloudy
Partly Cloudy
89 °F
Feels Like 97 °F
N
0
Wind Variable Wind from SW
Gusts 3.0 mph

Today
High -- | Low -- °F
--% Chance of Precip.
Yesterday
High -- | Low -- °F
Precip. -- in
7:02 AM 7:55 PM
Waning Gibbous, 77% visible
Pressure 30.00 in
Visibility 10.0 miles
Clouds Few 6000 ft
Heat Index 97 °F
Dew Point 73 °F
Humidity 60%
Rainfall in
Snow Depth Not available.
UV 4 out of 12
Pollen 8.70 out of 12
Air Quality Not available.
Flu Activity Not available.
METAR KGMU 022053Z 20008KT 10SM FEW060 32/18 A3003 RMK AO2 SLP157 T03170178 56022
Pressure 30.00 in
Visibility 10.0 miles
Clouds Few 6000 ft
Heat Index 97 °F
Dew Point 73 °F
Humidity 60%
Rainfall in
Snow Depth Not available.
UV 4 out of 12
Pollen 8.70 out of 12
Air Quality Not available.
Flu Activity Not available.
METAR KGMU 022053Z 20008KT 10SM FEW060 32/18 A3003 RMK AO2 SLP157 T03170178 56022

10-Day Weather Forecast

×

Almanac

Astronomy

Sep. 02, 2015 Rise Set
Actual Time
Civil Twilight
Nautical Twilight
Astronomical Twilight
Moon
Length of Visible Light
Length of Day
Tomorrow will be .
, % of the Moon is Illuminated

Today's Extremes

State Highs State Lows

Community

WunderPhotos

Upload Photos

1,851,818 photos uploaded!

WunderBlogs® & News

Nearby

Air Quality

  Air Quality AQ Index Pollutant
Not available.

Snow Depth

Station Depth Elevation

Earthquake Activity

City Distance Mag. Time & Date
Minimum magnitude displayed is 2.5.

Coastal Water Temperatures

Place Temperature

Stations

Nearby Weather Stations

Station Location Temp. Windchill Dew Point Humidity Wind Precip. Elev Updated Type